Аэропорт: Кемерово. Кемерово

ICAO: UNEE

METAR:
2018/05/20 19:30
UNEE 201930Z 13004MPS CAVOK 01/M03 Q1023 R23/CLRD60 NOSIG RMK QFE744
METAR:
2018/05/20 18:24
TAF UNEE 201700Z 2018/2118 16003G08MPS 9999 SCT020 
      TEMPO 2100/2112 19008G15MPS 3100 -SHRA BKN011CB